Canton, Mississippi
Current Conditions -  °F | °C
As of 1:54 PM on Friday 28 Nov 2014 (Local Time) from KJAN Reporting Station
Clear Clear  
Wind Chill: 59°   Ceiling: Unl
Heat Index: 59°   Visibility: 10mi
Dew Point: 23°   Wind: 9mph
Humidity: 25%   Direction: 160°SSE
Pressure: 30.28"   Gusts: NA
Location:  32.61°N, 90.03°W
Report Text: KJAN 281954Z 16008KT 10SM CLR 15/M05 A3028 RMK AO2 SLP255 T01501050
Loading
Personal Weather Stations






























Interactive Weather Map New forecast layout! Learn more

10-Day Weather Forecast

Advertisements
Track Severe Weather on mobile